createdAt,value
2023-01-29T00:04:28.783Z,24.60
2023-01-29T00:06:56.544Z,24.42
2023-01-29T00:09:24.363Z,24.30
2023-01-29T00:11:52.168Z,24.10
2023-01-29T00:14:20.804Z,24.23
2023-01-29T00:16:48.634Z,25.15
2023-01-29T00:19:17.478Z,23.35
2023-01-29T00:21:46.876Z,23.38
2023-01-29T00:24:14.725Z,23.30
2023-01-29T00:26:43.085Z,24.10
2023-01-29T00:29:10.907Z,24.05
2023-01-29T00:31:38.795Z,22.33
2023-01-29T00:34:06.623Z,22.33
2023-01-29T00:36:34.378Z,22.92
2023-01-29T00:39:10.982Z,21.83
2023-01-29T00:41:56.740Z,21.60
2023-01-29T00:44:38.459Z,23.20
2023-01-29T00:47:27.883Z,23.02
2023-01-29T00:49:55.814Z,22.30
2023-01-29T00:52:26.287Z,21.73
2023-01-29T00:54:56.467Z,21.17
2023-01-29T00:57:24.620Z,22.15
2023-01-29T00:59:52.436Z,21.65
2023-01-29T01:02:38.322Z,22.20
2023-01-29T01:05:07.758Z,21.90
2023-01-29T01:07:35.539Z,21.67
2023-01-29T01:10:22.841Z,21.67
2023-01-29T01:12:54.081Z,21.33
2023-01-29T01:15:22.618Z,21.80
2023-01-29T01:17:53.625Z,20.73
2023-01-29T01:20:21.758Z,19.92
2023-01-29T01:22:49.631Z,20.23
2023-01-29T01:25:18.869Z,19.85
2023-01-29T01:27:46.962Z,20.23
2023-01-29T01:30:16.951Z,19.50
2023-01-29T01:32:44.998Z,19.42
2023-01-29T01:35:14.727Z,19.83
2023-01-29T01:37:42.779Z,19.02
2023-01-29T01:40:18.090Z,18.85
2023-01-29T01:42:50.170Z,19.08
2023-01-29T01:45:24.123Z,17.55
2023-01-29T01:47:55.295Z,15.68
2023-01-29T01:50:30.395Z,15.98
2023-01-29T01:53:02.249Z,15.32
2023-01-29T01:55:34.153Z,16.08
2023-01-29T01:58:09.548Z,15.30
2023-01-29T02:00:37.561Z,14.50
2023-01-29T02:03:24.372Z,14.50
2023-01-29T02:06:12.119Z,14.40
2023-01-29T02:09:06.181Z,15.80
2023-01-29T02:11:34.016Z,14.13
2023-01-29T02:14:03.509Z,14.07
2023-01-29T02:16:32.197Z,13.33
2023-01-29T02:19:00.201Z,13.32
2023-01-29T02:21:54.762Z,13.88
2023-01-29T02:24:51.587Z,12.73
2023-01-29T02:27:22.391Z,12.38
2023-01-29T02:30:01.534Z,12.20
2023-01-29T02:32:35.048Z,11.50
2023-01-29T02:35:28.580Z,11.32
2023-01-29T02:38:02.759Z,11.88
2023-01-29T02:40:34.262Z,12.25
2023-01-29T02:43:13.406Z,11.57
2023-01-29T02:45:48.398Z,12.80
2023-01-29T02:48:21.454Z,12.75
2023-01-29T02:50:57.880Z,12.65
2023-01-29T02:53:33.478Z,12.88
2023-01-29T02:56:08.399Z,12.40
2023-01-29T02:58:42.563Z,11.55
2023-01-29T03:01:16.891Z,9.30
2023-01-29T03:03:49.772Z,8.80
2023-01-29T03:06:22.316Z,9.75
2023-01-29T03:08:55.445Z,10.00
2023-01-29T03:11:23.471Z,10.45
2023-01-29T03:13:54.457Z,10.00
2023-01-29T03:16:30.985Z,8.63
2023-01-29T03:19:03.828Z,9.32
2023-01-29T03:21:53.111Z,8.88
2023-01-29T03:24:43.450Z,9.88
2023-01-29T03:27:33.422Z,9.57
2023-01-29T03:30:20.330Z,9.85
2023-01-29T03:32:51.878Z,10.00
2023-01-29T03:35:36.378Z,10.27
2023-01-29T03:38:05.363Z,10.95
2023-01-29T03:40:41.542Z,11.03
2023-01-29T03:43:14.158Z,11.35
2023-01-29T03:45:56.174Z,11.20
2023-01-29T03:48:32.386Z,11.32
2023-01-29T03:51:08.572Z,11.93
2023-01-29T03:53:44.871Z,11.63
2023-01-29T03:56:27.084Z,10.77
2023-01-29T03:59:00.436Z,10.88
2023-01-29T04:01:32.717Z,10.57
2023-01-29T04:04:07.253Z,11.20
2023-01-29T04:06:38.287Z,11.15
2023-01-29T04:09:11.601Z,10.38
2023-01-29T04:11:44.336Z,10.65
2023-01-29T04:14:13.155Z,11.18
2023-01-29T04:16:45.350Z,10.82
2023-01-29T04:19:14.633Z,11.47
2023-01-29T04:21:42.990Z,11.38
2023-01-29T04:24:13.291Z,11.02
2023-01-29T04:26:56.090Z,11.38
2023-01-29T04:29:37.977Z,12.50
2023-01-29T04:32:15.247Z,12.27
2023-01-29T04:35:00.564Z,11.73
2023-01-29T04:37:37.456Z,11.07
2023-01-29T04:40:16.156Z,11.88
2023-01-29T04:42:52.126Z,10.93
2023-01-29T04:45:28.727Z,11.88
2023-01-29T04:48:05.205Z,11.13
2023-01-29T04:50:40.460Z,11.27
2023-01-29T04:53:16.568Z,12.07
2023-01-29T04:55:50.747Z,11.68
2023-01-29T04:58:26.633Z,12.57
2023-01-29T05:00:55.730Z,12.07
2023-01-29T05:03:26.727Z,11.77
2023-01-29T05:05:58.802Z,11.68
2023-01-29T05:08:29.257Z,11.60
2023-01-29T05:10:59.767Z,12.48
2023-01-29T05:13:29.796Z,12.30
2023-01-29T05:16:02.779Z,11.95
2023-01-29T05:18:31.553Z,11.40
2023-01-29T05:21:05.536Z,10.87
2023-01-29T05:23:33.343Z,11.35
2023-01-29T05:26:01.160Z,11.50
2023-01-29T05:28:27.964Z,11.55
2023-01-29T05:30:57.357Z,12.00
2023-01-29T05:33:27.556Z,11.10
2023-01-29T05:35:55.646Z,12.88
2023-01-29T05:38:24.828Z,10.73
2023-01-29T05:40:53.950Z,11.73
2023-01-29T05:43:23.187Z,12.15
2023-01-29T05:45:55.381Z,13.07
2023-01-29T05:48:23.594Z,13.18
2023-01-29T05:50:51.575Z,13.55
2023-01-29T05:53:19.368Z,14.35
2023-01-29T05:55:49.008Z,13.98
2023-01-29T05:58:17.464Z,14.00
2023-01-29T06:00:45.221Z,14.43
2023-01-29T06:03:13.090Z,14.95
2023-01-29T06:05:41.289Z,14.70
2023-01-29T06:08:09.647Z,14.30
2023-01-29T06:10:37.701Z,14.48
2023-01-29T06:13:06.925Z,14.88
2023-01-29T06:15:34.747Z,14.73
2023-01-29T06:18:02.526Z,14.43
2023-01-29T06:20:30.285Z,14.40
2023-01-29T06:22:58.015Z,14.18
2023-01-29T06:25:25.803Z,15.10
2023-01-29T06:27:53.607Z,14.65
2023-01-29T06:30:22.991Z,13.27
2023-01-29T06:32:51.259Z,13.90
2023-01-29T06:35:19.024Z,13.32
2023-01-29T06:37:46.778Z,13.77
2023-01-29T06:40:15.254Z,13.45
2023-01-29T06:42:45.888Z,13.95
2023-01-29T06:45:13.894Z,13.63
2023-01-29T06:47:43.067Z,14.45
2023-01-29T06:50:12.247Z,14.02
2023-01-29T06:52:40.047Z,13.15
2023-01-29T06:55:08.751Z,13.88
2023-01-29T06:57:36.579Z,13.32
2023-01-29T07:00:06.128Z,13.60
2023-01-29T07:02:33.974Z,14.15
2023-01-29T07:05:03.108Z,14.13
2023-01-29T07:07:30.929Z,13.50
2023-01-29T07:09:58.726Z,12.65
2023-01-29T07:12:26.541Z,13.18
2023-01-29T07:14:54.319Z,13.98
2023-01-29T07:17:22.106Z,13.43
2023-01-29T07:19:49.850Z,13.85
2023-01-29T07:22:18.979Z,14.98
2023-01-29T07:24:48.291Z,14.10
2023-01-29T07:27:16.076Z,13.93
2023-01-29T07:29:43.829Z,14.75
2023-01-29T07:32:11.656Z,13.50
2023-01-29T07:34:39.530Z,13.52
2023-01-29T07:37:07.367Z,13.82
2023-01-29T07:39:36.817Z,13.38
2023-01-29T07:42:04.902Z,14.23
2023-01-29T07:44:32.666Z,13.77
2023-01-29T07:47:00.439Z,12.73
2023-01-29T07:49:28.207Z,13.43
2023-01-29T07:51:56.148Z,13.52
2023-01-29T07:54:23.996Z,13.52
2023-01-29T07:56:53.192Z,13.15
2023-01-29T07:59:21.072Z,13.20
2023-01-29T08:01:48.895Z,13.27
2023-01-29T08:04:16.639Z,13.70
2023-01-29T08:06:44.445Z,13.38
2023-01-29T08:09:12.261Z,12.80
2023-01-29T08:11:40.203Z,14.18
2023-01-29T08:14:10.479Z,13.40
2023-01-29T08:16:38.319Z,11.98
2023-01-29T08:19:06.143Z,12.30
2023-01-29T08:21:33.917Z,12.85
2023-01-29T08:26:34.560Z,11.93
2023-01-29T08:29:02.364Z,12.10
2023-01-29T08:31:31.583Z,12.50
2023-01-29T08:33:59.662Z,12.00
2023-01-29T08:36:27.482Z,12.40
2023-01-29T08:38:55.272Z,12.43
2023-01-29T08:41:23.142Z,12.27
2023-01-29T08:43:51.199Z,11.53
2023-01-29T08:46:19.051Z,11.40
2023-01-29T08:48:48.214Z,12.27
2023-01-29T08:51:16.526Z,12.10
2023-01-29T08:53:44.280Z,11.73
2023-01-29T08:56:12.111Z,11.95
2023-01-29T08:58:40.039Z,12.10
2023-01-29T09:01:08.807Z,12.57
2023-01-29T09:03:37.011Z,13.07
2023-01-29T09:06:06.442Z,13.50
2023-01-29T09:08:34.353Z,13.20
2023-01-29T09:11:02.180Z,12.82
2023-01-29T09:13:30.282Z,13.30
2023-01-29T09:16:00.462Z,13.57
2023-01-29T09:18:28.784Z,12.95
2023-01-29T09:20:56.570Z,12.40
2023-01-29T09:23:26.081Z,12.23
2023-01-29T09:25:53.858Z,13.00
2023-01-29T09:28:21.706Z,13.18
2023-01-29T09:30:49.635Z,13.10
2023-01-29T09:33:18.228Z,13.07
2023-01-29T09:35:47.047Z,14.02
2023-01-29T09:38:15.184Z,15.45
2023-01-29T09:40:55.800Z,14.13
2023-01-29T09:43:28.831Z,14.32
2023-01-29T09:46:02.968Z,13.40
2023-01-29T09:48:34.666Z,13.57
2023-01-29T09:51:07.003Z,13.75
2023-01-29T09:53:40.579Z,14.02
2023-01-29T09:56:13.640Z,14.40
2023-01-29T09:58:44.036Z,14.03
2023-01-29T10:01:17.519Z,13.13
2023-01-29T10:04:00.784Z,13.07
2023-01-29T10:06:41.432Z,13.75
2023-01-29T10:09:40.784Z,14.05
2023-01-29T10:12:31.855Z,12.98
2023-01-29T10:15:06.162Z,14.07
2023-01-29T10:17:55.506Z,14.60
2023-01-29T10:20:47.354Z,13.40
2023-01-29T10:23:22.860Z,13.88
2023-01-29T10:25:51.027Z,12.50
2023-01-29T10:28:23.953Z,12.70
2023-01-29T10:30:57.046Z,13.07
2023-01-29T10:33:39.084Z,13.25
2023-01-29T10:36:18.072Z,12.30
2023-01-29T10:38:48.005Z,12.63
2023-01-29T10:41:27.689Z,12.43
2023-01-29T10:44:08.007Z,13.00
2023-01-29T10:46:49.327Z,13.05
2023-01-29T10:49:35.381Z,12.63
2023-01-29T10:52:16.399Z,12.67
2023-01-29T10:54:58.295Z,12.40
2023-01-29T10:57:40.320Z,12.30
2023-01-29T11:00:15.133Z,12.13
2023-01-29T11:02:48.245Z,11.48
2023-01-29T11:05:24.207Z,11.85
2023-01-29T11:08:01.807Z,11.38
2023-01-29T11:10:32.421Z,11.32
2023-01-29T11:13:00.799Z,11.60
2023-01-29T11:15:33.732Z,12.43
2023-01-29T11:18:10.270Z,12.88
2023-01-29T11:20:38.127Z,14.00
2023-01-29T11:23:07.629Z,13.80
2023-01-29T11:25:35.783Z,12.60
2023-01-29T11:28:05.253Z,13.88
2023-01-29T11:30:38.241Z,12.20
2023-01-29T11:33:18.394Z,12.10
2023-01-29T11:35:46.757Z,12.00
2023-01-29T11:38:24.821Z,12.15
2023-01-29T11:40:53.681Z,11.75
2023-01-29T11:43:24.307Z,11.85
2023-01-29T11:45:56.163Z,12.13
2023-01-29T11:48:31.188Z,11.90
2023-01-29T11:51:01.357Z,11.05
2023-01-29T11:53:37.701Z,12.02
2023-01-29T11:56:15.982Z,10.98
2023-01-29T11:58:44.298Z,11.27
2023-01-29T12:01:16.507Z,11.90
2023-01-29T12:03:48.906Z,11.90
2023-01-29T12:06:21.077Z,12.50
2023-01-29T12:08:57.854Z,11.68
2023-01-29T12:11:28.861Z,12.00
2023-01-29T12:13:58.572Z,11.68
2023-01-29T12:16:31.957Z,12.10
2023-01-29T12:19:11.114Z,12.50
2023-01-29T12:21:47.080Z,12.43
2023-01-29T12:24:27.035Z,12.73
2023-01-29T12:27:01.798Z,12.35
2023-01-29T12:29:38.479Z,12.40
2023-01-29T12:32:18.124Z,13.00
2023-01-29T12:34:49.305Z,13.52
2023-01-29T12:37:23.423Z,14.43
2023-01-29T12:39:52.945Z,14.13
2023-01-29T12:42:22.677Z,14.90
2023-01-29T12:44:54.072Z,13.60
2023-01-29T12:47:27.854Z,14.20
2023-01-29T12:49:58.727Z,14.00
2023-01-29T12:52:38.890Z,13.43
2023-01-29T12:55:13.400Z,13.60
2023-01-29T12:57:47.035Z,13.35
2023-01-29T13:00:20.091Z,13.07
2023-01-29T13:02:56.377Z,12.25
2023-01-29T13:05:27.283Z,12.80
2023-01-29T13:08:02.282Z,13.30
2023-01-29T13:10:34.028Z,12.98
2023-01-29T13:13:06.371Z,13.43
2023-01-29T13:15:37.832Z,13.60
2023-01-29T13:18:31.111Z,12.95
2023-01-29T13:21:00.472Z,13.55
2023-01-29T13:23:34.967Z,13.25
2023-01-29T13:26:03.596Z,13.55
2023-01-29T13:28:31.975Z,13.40
2023-01-29T13:31:14.241Z,13.30
2023-01-29T13:33:45.741Z,13.00
2023-01-29T13:36:18.982Z,12.85
2023-01-29T13:38:47.053Z,12.48
2023-01-29T13:41:15.658Z,12.15
2023-01-29T13:43:49.407Z,12.77
2023-01-29T13:46:21.223Z,12.20
2023-01-29T13:48:54.453Z,12.73
2023-01-29T13:51:26.586Z,12.43
2023-01-29T13:53:58.000Z,13.20
2023-01-29T13:56:45.338Z,12.50
2023-01-29T13:59:46.235Z,12.50
2023-01-29T14:02:27.551Z,13.30
2023-01-29T14:05:28.841Z,12.38
2023-01-29T14:07:59.151Z,11.88
2023-01-29T14:10:28.604Z,12.10
2023-01-29T14:13:18.708Z,11.85
2023-01-29T14:16:26.046Z,11.45
2023-01-29T14:18:58.974Z,11.85
2023-01-29T14:21:31.653Z,11.98
2023-01-29T14:24:08.969Z,11.90
2023-01-29T14:26:45.324Z,11.73
2023-01-29T14:29:33.851Z,11.90
2023-01-29T14:32:14.742Z,12.18
2023-01-29T14:34:47.562Z,12.70
2023-01-29T14:37:23.376Z,12.18
2023-01-29T14:39:54.066Z,11.98
2023-01-29T14:42:25.594Z,12.93
2023-01-29T14:45:08.370Z,12.87
2023-01-29T14:48:00.728Z,12.88
2023-01-29T14:50:53.958Z,13.07
2023-01-29T14:53:30.996Z,12.48
2023-01-29T14:56:03.004Z,12.13
2023-01-29T14:58:38.348Z,11.65
2023-01-29T15:01:15.805Z,11.35
2023-01-29T15:03:48.788Z,11.05
2023-01-29T15:06:20.987Z,10.43
2023-01-29T15:08:55.023Z,11.18
2023-01-29T15:11:36.884Z,10.77
2023-01-29T15:14:17.937Z,11.80
2023-01-29T15:16:58.632Z,12.00
2023-01-29T15:19:33.083Z,12.00
2023-01-29T15:22:09.493Z,11.23
2023-01-29T15:24:37.982Z,11.45
2023-01-29T15:27:07.871Z,11.57
2023-01-29T15:29:36.654Z,12.05
2023-01-29T15:32:04.668Z,12.07
2023-01-29T15:34:34.371Z,11.55
2023-01-29T15:37:03.032Z,10.80
2023-01-29T15:39:31.624Z,11.70
2023-01-29T15:42:12.561Z,11.85
2023-01-29T15:44:46.796Z,11.68
2023-01-29T15:47:15.533Z,11.52
2023-01-29T15:49:47.556Z,12.07
2023-01-29T15:52:19.626Z,12.77
2023-01-29T15:54:48.038Z,13.05
2023-01-29T15:57:23.350Z,13.07
2023-01-29T15:59:53.115Z,13.18
2023-01-29T16:02:33.797Z,12.93
2023-01-29T16:05:04.342Z,12.45
2023-01-29T16:07:33.163Z,12.55
2023-01-29T16:10:01.634Z,12.47
2023-01-29T16:12:29.845Z,12.95
2023-01-29T16:14:58.116Z,12.77
2023-01-29T16:17:28.862Z,13.27
2023-01-29T16:19:57.482Z,12.52
2023-01-29T16:22:27.716Z,13.10
2023-01-29T16:24:56.075Z,14.13
2023-01-29T16:27:26.074Z,14.98
2023-01-29T16:29:54.084Z,14.05
2023-01-29T16:32:21.999Z,14.85
2023-01-29T16:34:52.374Z,14.93
2023-01-29T16:37:24.683Z,14.20
2023-01-29T16:39:54.019Z,13.75
2023-01-29T16:42:24.746Z,13.02
2023-01-29T16:45:00.956Z,13.43
2023-01-29T16:47:32.371Z,13.57
2023-01-29T16:50:02.158Z,13.95
2023-01-29T16:52:32.260Z,13.38
2023-01-29T16:55:18.568Z,14.02
2023-01-29T16:57:52.912Z,15.38
2023-01-29T17:00:25.147Z,14.48
2023-01-29T17:02:56.099Z,14.75
2023-01-29T17:05:29.114Z,15.13
2023-01-29T17:07:58.856Z,15.70
2023-01-29T17:10:29.996Z,14.75
2023-01-29T17:13:00.136Z,15.55
2023-01-29T17:15:37.361Z,16.90
2023-01-29T17:18:12.883Z,16.13
2023-01-29T17:20:40.684Z,16.73
2023-01-29T17:23:08.458Z,15.48
2023-01-29T17:25:37.809Z,16.25
2023-01-29T17:28:06.042Z,16.63
2023-01-29T17:30:37.143Z,15.45
2023-01-29T17:33:12.647Z,15.02
2023-01-29T17:35:42.103Z,14.80
2023-01-29T17:38:24.962Z,14.05
2023-01-29T17:40:57.541Z,13.93
2023-01-29T17:43:25.520Z,14.15
2023-01-29T17:45:53.373Z,13.98
2023-01-29T17:48:23.963Z,14.27
2023-01-29T17:50:54.088Z,14.52
2023-01-29T17:53:24.812Z,14.15
2023-01-29T17:55:55.644Z,14.23
2023-01-29T17:58:26.000Z,13.85
2023-01-29T18:00:54.960Z,14.75
2023-01-29T18:03:23.423Z,13.82
2023-01-29T18:05:51.750Z,13.88
2023-01-29T18:08:21.679Z,14.02
2023-01-29T18:10:49.519Z,13.38
2023-01-29T18:13:18.683Z,13.52
2023-01-29T18:15:46.753Z,13.98
2023-01-29T18:18:16.612Z,13.63
2023-01-29T18:20:45.049Z,15.52
2023-01-29T18:23:13.474Z,15.15
2023-01-29T18:25:41.746Z,15.55
2023-01-29T18:28:15.471Z,15.18
2023-01-29T18:30:46.744Z,15.02
2023-01-29T18:33:15.299Z,16.95
2023-01-29T18:35:44.747Z,16.83
2023-01-29T18:38:12.815Z,16.95
2023-01-29T18:40:41.328Z,17.20
2023-01-29T18:43:09.383Z,17.83
2023-01-29T18:45:37.333Z,17.27
2023-01-29T18:48:07.190Z,17.77
2023-01-29T18:50:35.764Z,17.98
2023-01-29T18:53:04.280Z,17.65
2023-01-29T18:55:32.283Z,18.38
2023-01-29T18:58:26.830Z,18.05
2023-01-29T19:00:49.781Z,17.55
2023-01-29T19:03:19.237Z,16.83
2023-01-29T19:05:47.070Z,18.27
2023-01-29T19:08:15.292Z,16.65
2023-01-29T19:10:43.118Z,17.23
2023-01-29T19:13:10.951Z,17.00
2023-01-29T19:15:43.751Z,16.63
2023-01-29T19:18:14.727Z,17.00
2023-01-29T19:20:44.047Z,17.53
2023-01-29T19:23:11.870Z,17.92
2023-01-29T19:25:40.555Z,17.92
2023-01-29T19:28:08.961Z,17.15
2023-01-29T19:30:36.899Z,16.67
2023-01-29T19:33:05.481Z,16.92
2023-01-29T19:35:33.957Z,16.60
2023-01-29T19:38:03.104Z,17.23
2023-01-29T19:40:30.966Z,16.35
2023-01-29T19:42:59.352Z,17.35
2023-01-29T19:45:49.088Z,16.92
2023-01-29T19:48:15.800Z,18.38
2023-01-29T19:50:43.716Z,17.05
2023-01-29T19:53:12.891Z,18.40
2023-01-29T19:55:42.764Z,18.77
2023-01-29T19:58:10.807Z,18.23
2023-01-29T20:00:38.695Z,17.75
2023-01-29T20:03:06.584Z,18.43
2023-01-29T20:05:37.344Z,18.45
2023-01-29T20:08:05.417Z,17.97
2023-01-29T20:10:34.847Z,18.20
2023-01-29T20:13:02.846Z,18.48
2023-01-29T20:15:30.688Z,17.58
2023-01-29T20:17:58.921Z,17.30
2023-01-29T20:20:27.651Z,18.17
2023-01-29T20:23:01.338Z,17.52
2023-01-29T20:25:29.093Z,18.30
2023-01-29T20:27:58.196Z,18.95
2023-01-29T20:30:26.075Z,17.73
2023-01-29T20:32:53.870Z,18.65
2023-01-29T20:35:21.627Z,19.17
2023-01-29T20:37:49.436Z,18.17
2023-01-29T20:40:17.751Z,18.85
2023-01-29T20:42:45.718Z,19.10
2023-01-29T20:45:15.223Z,18.88
2023-01-29T20:47:43.059Z,19.67
2023-01-29T20:50:12.616Z,19.15
2023-01-29T20:52:42.260Z,21.00
2023-01-29T20:55:12.656Z,19.83
2023-01-29T20:57:40.755Z,20.37
2023-01-29T21:00:10.343Z,20.52
2023-01-29T21:02:40.092Z,19.97
2023-01-29T21:05:08.558Z,21.05
2023-01-29T21:07:37.012Z,20.10
2023-01-29T21:10:05.205Z,20.52
2023-01-29T21:12:32.960Z,20.33
2023-01-29T21:15:01.011Z,19.87
2023-01-29T21:17:28.875Z,20.33
2023-01-29T21:19:58.003Z,20.25
2023-01-29T21:22:25.831Z,20.67
2023-01-29T21:24:53.632Z,21.33
2023-01-29T21:27:21.393Z,21.45
2023-01-29T21:29:49.285Z,21.13
2023-01-29T21:32:18.144Z,21.00
2023-01-29T21:34:45.931Z,22.02
2023-01-29T21:37:15.204Z,22.45
2023-01-29T21:39:42.974Z,21.50
2023-01-29T21:42:28.364Z,22.70
2023-01-29T21:44:56.238Z,21.58
2023-01-29T21:47:24.100Z,21.27
2023-01-29T21:49:51.955Z,21.85
2023-01-29T21:52:21.091Z,22.63
2023-01-29T21:54:49.439Z,21.98
2023-01-29T21:57:18.007Z,22.75
2023-01-29T21:59:47.033Z,22.83
2023-01-29T22:02:20.849Z,22.45
2023-01-29T22:04:50.148Z,22.42
2023-01-29T22:07:17.999Z,22.10
2023-01-29T22:09:47.213Z,21.92
2023-01-29T22:12:15.051Z,23.25
2023-01-29T22:14:43.234Z,24.07
2023-01-29T22:17:11.294Z,23.15
2023-01-29T22:19:39.149Z,23.95
2023-01-29T22:22:07.730Z,24.00
2023-01-29T22:24:35.559Z,22.33
2023-01-29T22:27:04.839Z,23.60
2023-01-29T22:29:32.592Z,24.48
2023-01-29T22:32:00.452Z,24.20
2023-01-29T22:34:28.235Z,23.23
2023-01-29T22:36:56.056Z,24.85
2023-01-29T22:39:23.949Z,25.33
2023-01-29T22:41:51.816Z,23.92
2023-01-29T22:44:21.005Z,24.33
2023-01-29T22:46:49.475Z,24.75
2023-01-29T22:49:17.283Z,25.45
2023-01-29T22:51:45.037Z,26.53
2023-01-29T22:54:12.814Z,25.73
2023-01-29T22:56:40.583Z,26.60
2023-01-29T22:59:08.384Z,26.75
2023-01-29T23:01:37.547Z,25.85
2023-01-29T23:04:05.345Z,26.58
2023-01-29T23:06:33.081Z,25.13
2023-01-29T23:09:00.891Z,26.02
2023-01-29T23:11:28.821Z,26.83
2023-01-29T23:13:56.765Z,26.10
2023-01-29T23:16:27.945Z,25.55
2023-01-29T23:18:57.642Z,25.60
2023-01-29T23:21:27.719Z,26.40
2023-01-29T23:23:58.184Z,25.20
2023-01-29T23:26:43.582Z,25.35
2023-01-29T23:29:11.693Z,26.52
2023-01-29T23:31:39.967Z,26.40
2023-01-29T23:34:09.235Z,27.00
2023-01-29T23:36:37.571Z,26.07
2023-01-29T23:39:06.099Z,27.73
2023-01-29T23:41:33.974Z,26.17
2023-01-29T23:44:01.799Z,27.95
2023-01-29T23:46:29.718Z,26.35
2023-01-29T23:48:57.550Z,26.55
2023-01-29T23:51:26.960Z,27.23
2023-01-29T23:53:55.008Z,26.88
2023-01-29T23:56:22.809Z,27.48
2023-01-29T23:58:53.944Z,27.33
